createdAt,value
2022-11-16T00:01:00.927Z,85.63
2022-11-16T00:03:28.672Z,86.03
2022-11-16T00:05:57.640Z,86.10
2022-11-16T00:08:25.723Z,86.51
2022-11-16T00:10:53.809Z,86.29
2022-11-16T00:13:21.762Z,86.78
2022-11-16T00:15:57.614Z,86.83
2022-11-16T00:18:25.411Z,87.01
2022-11-16T00:20:53.137Z,87.20
2022-11-16T00:23:20.995Z,87.23
2022-11-16T00:25:48.763Z,87.58
2022-11-16T00:28:16.654Z,87.87
2022-11-16T00:30:44.306Z,87.91
2022-11-16T00:33:16.188Z,87.99
2022-11-16T00:35:43.811Z,88.00
2022-11-16T00:38:11.480Z,88.44
2022-11-16T00:40:39.176Z,88.63
2022-11-16T00:43:06.847Z,88.60
2022-11-16T00:45:34.547Z,88.62
2022-11-16T00:48:02.216Z,88.61
2022-11-16T00:50:31.220Z,88.40
2022-11-16T00:52:58.834Z,88.57
2022-11-16T00:55:26.481Z,88.78
2022-11-16T00:57:54.123Z,88.85
2022-11-16T01:00:22.595Z,89.01
2022-11-16T01:02:52.695Z,89.29
2022-11-16T01:05:20.759Z,89.35
2022-11-16T01:07:50.621Z,89.38
2022-11-16T01:10:20.801Z,89.36
2022-11-16T01:12:48.264Z,89.50
2022-11-16T01:15:16.537Z,89.47
2022-11-16T01:17:44.649Z,89.08
2022-11-16T01:20:14.806Z,89.40
2022-11-16T01:22:42.999Z,89.25
2022-11-16T01:25:13.273Z,89.84
2022-11-16T01:27:41.527Z,89.55
2022-11-16T01:30:11.353Z,89.62
2022-11-16T01:32:39.055Z,89.45
2022-11-16T01:35:07.529Z,89.65
2022-11-16T01:37:35.252Z,89.87
2022-11-16T01:40:02.941Z,89.92
2022-11-16T01:42:33.486Z,89.79
2022-11-16T01:45:08.912Z,90.04
2022-11-16T01:47:36.577Z,89.97
2022-11-16T01:50:08.679Z,89.81
2022-11-16T01:52:38.802Z,89.91
2022-11-16T01:55:07.408Z,90.11
2022-11-16T01:57:39.441Z,90.22
2022-11-16T02:00:09.419Z,90.30
2022-11-16T02:02:39.255Z,90.13
2022-11-16T02:05:07.550Z,90.27
2022-11-16T02:08:00.258Z,90.37
2022-11-16T02:10:40.901Z,90.45
2022-11-16T02:13:18.874Z,90.60
2022-11-16T02:15:49.813Z,90.78
2022-11-16T02:18:24.017Z,90.91
2022-11-16T02:20:59.782Z,90.56
2022-11-16T02:24:03.437Z,90.85
2022-11-16T02:26:49.080Z,91.24
2022-11-16T02:29:26.772Z,91.02
2022-11-16T02:32:00.707Z,91.12
2022-11-16T02:34:32.598Z,91.23
2022-11-16T02:37:02.704Z,91.39
2022-11-16T02:39:31.775Z,91.32
2022-11-16T02:42:00.329Z,91.00
2022-11-16T02:44:32.111Z,91.15
2022-11-16T02:47:03.004Z,91.44
2022-11-16T02:49:32.561Z,91.42
2022-11-16T02:52:00.294Z,91.91
2022-11-16T02:54:28.121Z,92.01
2022-11-16T02:56:57.585Z,91.87
2022-11-16T02:59:31.943Z,92.10
2022-11-16T03:02:04.158Z,92.41
2022-11-16T03:04:36.263Z,92.13
2022-11-16T03:07:05.486Z,92.59
2022-11-16T03:09:35.416Z,92.56
2022-11-16T03:12:05.147Z,92.78
2022-11-16T03:14:37.274Z,92.67
2022-11-16T03:17:06.853Z,92.29
2022-11-16T03:19:37.630Z,92.68
2022-11-16T03:22:08.651Z,92.95
2022-11-16T03:24:36.324Z,93.00
2022-11-16T03:27:08.464Z,93.15
2022-11-16T03:29:42.202Z,93.15
2022-11-16T03:32:14.228Z,93.38
2022-11-16T03:34:42.815Z,92.94
2022-11-16T03:37:11.045Z,93.13
2022-11-16T03:39:39.871Z,93.06
2022-11-16T03:42:11.435Z,92.82
2022-11-16T03:44:41.959Z,92.48
2022-11-16T03:47:09.604Z,92.82
2022-11-16T03:49:37.308Z,92.50
2022-11-16T03:52:05.513Z,92.37
2022-11-16T03:54:33.097Z,92.54
2022-11-16T03:57:01.580Z,92.41
2022-11-16T03:59:29.259Z,92.64
2022-11-16T04:01:58.334Z,92.66
2022-11-16T04:04:43.268Z,92.28
2022-11-16T04:07:28.546Z,92.36
2022-11-16T04:10:13.783Z,92.46
2022-11-16T04:13:01.583Z,92.54
2022-11-16T04:15:46.800Z,92.48
2022-11-16T04:18:33.326Z,92.50
2022-11-16T04:21:19.067Z,92.10
2022-11-16T04:24:04.942Z,92.43
2022-11-16T04:26:46.648Z,92.05
2022-11-16T04:29:14.578Z,92.64
2022-11-16T04:31:59.794Z,92.64
2022-11-16T04:34:46.201Z,92.23
2022-11-16T04:37:34.242Z,92.39
2022-11-16T04:40:01.908Z,92.76
2022-11-16T04:42:29.606Z,92.72
2022-11-16T04:45:14.839Z,92.66
2022-11-16T04:47:42.508Z,92.33
2022-11-16T04:50:11.897Z,92.45
2022-11-16T04:52:39.569Z,92.54
2022-11-16T04:55:07.772Z,92.93
2022-11-16T04:57:35.450Z,92.75
2022-11-16T05:00:03.631Z,92.62
2022-11-16T05:02:31.299Z,92.77
2022-11-16T05:04:58.959Z,92.96
2022-11-16T05:07:28.107Z,93.05
2022-11-16T05:09:55.863Z,93.12
2022-11-16T05:12:25.396Z,93.23
2022-11-16T05:14:54.958Z,92.95
2022-11-16T05:17:23.155Z,93.21
2022-11-16T05:20:08.996Z,93.21
2022-11-16T05:22:38.396Z,93.49
2022-11-16T05:25:07.342Z,93.31
2022-11-16T05:27:35.132Z,93.38
2022-11-16T05:30:02.780Z,93.90
2022-11-16T05:32:30.424Z,93.82
2022-11-16T05:34:58.225Z,94.12
2022-11-16T05:37:26.830Z,93.96
2022-11-16T05:39:56.946Z,94.28
2022-11-16T05:42:24.761Z,94.21
2022-11-16T05:44:52.454Z,94.90
2022-11-16T05:47:20.206Z,94.86
2022-11-16T05:49:47.951Z,94.95
2022-11-16T05:52:15.649Z,94.75
2022-11-16T05:54:43.340Z,94.86
2022-11-16T05:57:12.373Z,94.69
2022-11-16T05:59:40.024Z,94.89
2022-11-16T06:02:07.656Z,94.80
2022-11-16T06:04:35.305Z,95.05
2022-11-16T06:07:03.000Z,95.15
2022-11-16T06:09:30.776Z,95.22
2022-11-16T06:11:58.455Z,94.81
2022-11-16T06:14:27.496Z,95.04
2022-11-16T06:16:55.222Z,94.79
2022-11-16T06:19:24.379Z,94.83
2022-11-16T06:21:53.657Z,95.13
2022-11-16T06:24:21.297Z,94.84
2022-11-16T06:26:49.160Z,94.69
2022-11-16T06:29:16.804Z,94.72
2022-11-16T06:31:45.900Z,94.86
2022-11-16T06:34:13.533Z,94.80
2022-11-16T06:36:41.219Z,94.91
2022-11-16T06:39:08.848Z,94.70
2022-11-16T06:41:41.092Z,94.71
2022-11-16T06:44:09.418Z,94.73
2022-11-16T06:46:37.107Z,94.94
2022-11-16T06:49:06.160Z,94.94
2022-11-16T06:51:33.745Z,94.84
2022-11-16T06:54:01.494Z,95.17
2022-11-16T06:56:29.229Z,95.35
2022-11-16T06:58:57.060Z,94.83
2022-11-16T07:01:24.787Z,93.80
2022-11-16T07:03:52.544Z,93.54
2022-11-16T07:06:21.608Z,93.44
2022-11-16T07:08:49.226Z,93.23
2022-11-16T07:11:16.943Z,93.13
2022-11-16T07:13:44.636Z,93.25
2022-11-16T07:16:13.142Z,92.95
2022-11-16T07:18:42.483Z,93.15
2022-11-16T07:21:11.111Z,93.13
2022-11-16T07:23:40.712Z,93.05
2022-11-16T07:26:09.379Z,93.07
2022-11-16T07:28:38.356Z,92.84
2022-11-16T07:31:09.932Z,92.81
2022-11-16T07:33:38.093Z,92.79
2022-11-16T07:36:07.801Z,92.67
2022-11-16T07:38:36.380Z,92.68
2022-11-16T07:41:07.273Z,92.68
2022-11-16T07:43:36.005Z,92.67
2022-11-16T07:48:51.981Z,92.41
2022-11-16T07:51:20.966Z,92.63
2022-11-16T07:53:48.586Z,92.46
2022-11-16T07:56:17.616Z,92.83
2022-11-16T07:58:45.660Z,92.72
2022-11-16T08:01:14.533Z,92.92
2022-11-16T08:03:43.792Z,92.71
2022-11-16T08:06:13.643Z,93.11
2022-11-16T08:08:41.318Z,93.01
2022-11-16T08:11:10.718Z,93.49
2022-11-16T08:13:40.724Z,93.64
2022-11-16T08:16:10.187Z,93.68
2022-11-16T08:18:38.722Z,93.60
2022-11-16T08:21:07.767Z,93.65
2022-11-16T08:23:35.705Z,93.82
2022-11-16T08:26:06.014Z,93.31
2022-11-16T08:28:34.043Z,93.64
2022-11-16T08:31:09.118Z,93.57
2022-11-16T08:33:36.733Z,92.38
2022-11-16T08:36:09.446Z,92.14
2022-11-16T08:38:40.548Z,92.19
2022-11-16T08:41:08.250Z,91.90
2022-11-16T08:43:35.983Z,92.03
2022-11-16T08:46:05.175Z,91.75
2022-11-16T08:48:33.217Z,91.33
2022-11-16T08:51:20.495Z,91.05
2022-11-16T08:53:49.448Z,91.42
2022-11-16T08:56:18.592Z,91.21
2022-11-16T08:58:47.049Z,91.01
2022-11-16T09:01:17.910Z,91.44
2022-11-16T09:03:46.008Z,91.48
2022-11-16T09:06:14.017Z,91.59
2022-11-16T09:08:43.171Z,91.09
2022-11-16T09:11:12.418Z,90.81
2022-11-16T09:13:40.555Z,90.65
2022-11-16T09:16:08.876Z,90.77
2022-11-16T09:18:38.559Z,90.89
2022-11-16T09:21:06.488Z,91.45
2022-11-16T09:23:34.262Z,90.56
2022-11-16T09:26:03.341Z,90.06
2022-11-16T09:28:31.365Z,89.32
2022-11-16T09:31:02.075Z,89.18
2022-11-16T09:33:31.492Z,89.04
2022-11-16T09:36:06.957Z,89.25
2022-11-16T09:39:03.231Z,88.93
2022-11-16T09:41:35.068Z,88.55
2022-11-16T09:44:07.728Z,88.81
2022-11-16T09:46:38.321Z,88.06
2022-11-16T09:49:17.358Z,88.84
2022-11-16T09:51:48.141Z,88.66
2022-11-16T09:54:17.384Z,88.33
2022-11-16T09:56:46.384Z,86.86
2022-11-16T09:59:20.807Z,87.81
2022-11-16T10:01:51.407Z,87.68
2022-11-16T10:04:21.983Z,88.13
2022-11-16T10:06:54.913Z,88.13
2022-11-16T10:09:23.146Z,87.96
2022-11-16T10:12:14.050Z,86.06
2022-11-16T10:15:08.597Z,86.63
2022-11-16T10:17:48.026Z,87.48
2022-11-16T10:20:47.100Z,88.36
2022-11-16T10:23:21.196Z,88.45
2022-11-16T10:25:54.956Z,87.93
2022-11-16T10:28:51.446Z,86.09
2022-11-16T10:31:24.472Z,86.63
2022-11-16T10:33:53.722Z,86.73
2022-11-16T10:36:27.020Z,85.55
2022-11-16T10:38:57.206Z,85.34
2022-11-16T10:41:28.852Z,85.67
2022-11-16T10:43:57.864Z,83.85
2022-11-16T10:46:29.560Z,84.47
2022-11-16T10:49:03.428Z,85.64
2022-11-16T10:51:31.098Z,85.01
2022-11-16T10:54:00.341Z,84.36
2022-11-16T10:56:30.169Z,83.87
2022-11-16T10:58:59.675Z,83.22
2022-11-16T11:01:33.469Z,81.47
2022-11-16T11:04:18.761Z,81.30
2022-11-16T11:06:47.468Z,80.68
2022-11-16T11:09:27.677Z,81.44
2022-11-16T11:12:17.075Z,81.51
2022-11-16T11:14:59.747Z,80.98
2022-11-16T11:17:27.552Z,83.61
2022-11-16T11:19:58.737Z,82.70
2022-11-16T11:22:26.545Z,80.69
2022-11-16T11:24:55.857Z,80.48
2022-11-16T11:27:25.227Z,82.73
2022-11-16T11:29:55.186Z,81.80
2022-11-16T11:32:24.677Z,83.71
2022-11-16T11:34:54.584Z,83.22
2022-11-16T11:37:25.809Z,82.92
2022-11-16T11:40:08.512Z,80.46
2022-11-16T11:42:36.235Z,80.55
2022-11-16T11:45:07.817Z,82.33
2022-11-16T11:47:59.634Z,83.19
2022-11-16T11:50:44.311Z,81.11
2022-11-16T11:53:19.830Z,80.28
2022-11-16T11:55:49.979Z,79.27
2022-11-16T11:58:19.735Z,82.26
2022-11-16T12:00:55.382Z,79.38
2022-11-16T12:03:59.173Z,78.58
2022-11-16T12:06:31.004Z,79.83
2022-11-16T12:09:06.771Z,78.34
2022-11-16T12:11:44.618Z,77.25
2022-11-16T12:14:23.585Z,77.16
2022-11-16T12:16:56.038Z,78.68
2022-11-16T12:19:38.935Z,76.70
2022-11-16T12:22:13.360Z,77.46
2022-11-16T12:24:54.049Z,76.32
2022-11-16T12:27:30.086Z,77.02
2022-11-16T12:30:03.426Z,76.83
2022-11-16T12:32:53.132Z,76.70
2022-11-16T12:35:34.810Z,75.95
2022-11-16T12:38:09.810Z,75.85
2022-11-16T12:40:43.625Z,76.41
2022-11-16T12:43:18.101Z,76.36
2022-11-16T12:45:52.562Z,75.58
2022-11-16T12:48:33.132Z,75.57
2022-11-16T12:51:07.089Z,77.21
2022-11-16T12:53:52.259Z,77.47
2022-11-16T12:56:25.736Z,75.78
2022-11-16T12:59:14.136Z,75.79
2022-11-16T13:01:44.595Z,75.17
2022-11-16T13:04:17.192Z,76.47
2022-11-16T13:06:48.313Z,76.58
2022-11-16T13:09:18.469Z,75.81
2022-11-16T13:11:48.820Z,76.06
2022-11-16T13:14:20.482Z,76.03
2022-11-16T13:16:48.669Z,75.45
2022-11-16T13:19:18.112Z,75.75
2022-11-16T13:21:50.943Z,75.98
2022-11-16T13:24:41.689Z,76.40
2022-11-16T13:27:26.381Z,76.95
2022-11-16T13:29:59.076Z,76.48
2022-11-16T13:32:34.778Z,74.15
2022-11-16T13:35:04.821Z,74.58
2022-11-16T13:37:49.009Z,73.92
2022-11-16T13:40:27.071Z,73.66
2022-11-16T13:43:19.001Z,73.97
2022-11-16T13:45:58.901Z,73.28
2022-11-16T13:48:30.530Z,74.06
2022-11-16T13:51:00.043Z,73.23
2022-11-16T13:56:20.202Z,73.18
2022-11-16T13:58:51.498Z,72.71
2022-11-16T14:01:20.672Z,73.59
2022-11-16T14:03:51.452Z,71.93
2022-11-16T14:06:55.868Z,73.20
2022-11-16T14:09:43.661Z,73.27
2022-11-16T14:12:57.941Z,73.23
2022-11-16T14:15:34.000Z,73.50
2022-11-16T14:18:19.237Z,74.09
2022-11-16T14:20:56.771Z,74.36
2022-11-16T14:23:37.109Z,74.33
2022-11-16T14:26:14.660Z,74.80
2022-11-16T14:29:05.952Z,74.59
2022-11-16T14:31:48.052Z,74.99
2022-11-16T14:34:20.714Z,75.45
2022-11-16T14:36:48.787Z,74.71
2022-11-16T14:39:37.196Z,74.64
2022-11-16T14:42:07.190Z,74.50
2022-11-16T14:44:38.474Z,74.80
2022-11-16T14:47:06.330Z,74.76
2022-11-16T14:49:37.318Z,74.84
2022-11-16T14:52:06.809Z,74.95
2022-11-16T14:54:38.019Z,75.65
2022-11-16T14:57:07.777Z,74.95
2022-11-16T14:59:35.540Z,75.28
2022-11-16T15:02:11.839Z,75.48
2022-11-16T15:04:40.930Z,75.53
2022-11-16T15:07:08.777Z,76.07
2022-11-16T15:09:40.351Z,76.33
2022-11-16T15:12:32.790Z,75.53
2022-11-16T15:15:05.312Z,76.22
2022-11-16T15:17:33.609Z,75.64
2022-11-16T15:20:06.040Z,75.60
2022-11-16T15:22:40.811Z,75.65
2022-11-16T15:25:25.281Z,75.58
2022-11-16T15:27:53.291Z,75.94
2022-11-16T15:30:22.804Z,76.08
2022-11-16T15:32:52.485Z,75.72
2022-11-16T15:35:23.559Z,76.12
2022-11-16T15:38:02.059Z,75.67
2022-11-16T15:40:30.503Z,76.04
2022-11-16T15:42:59.602Z,76.14
2022-11-16T15:45:28.289Z,75.89
2022-11-16T15:47:56.441Z,75.65
2022-11-16T15:50:25.890Z,76.01
2022-11-16T15:52:55.302Z,75.81
2022-11-16T15:55:35.387Z,75.80
2022-11-16T15:58:06.381Z,75.54
2022-11-16T16:00:36.051Z,75.83
2022-11-16T16:03:07.132Z,75.92
2022-11-16T16:05:37.581Z,75.34
2022-11-16T16:08:06.604Z,75.40
2022-11-16T16:10:34.429Z,75.60
2022-11-16T16:13:02.735Z,75.75
2022-11-16T16:15:33.782Z,75.56
2022-11-16T16:18:02.127Z,75.39
2022-11-16T16:20:31.289Z,75.54
2022-11-16T16:23:12.304Z,75.96
2022-11-16T16:25:39.965Z,75.71
2022-11-16T16:28:07.996Z,75.97
2022-11-16T16:30:36.135Z,75.71
2022-11-16T16:33:03.790Z,75.40
2022-11-16T16:35:31.646Z,75.29
2022-11-16T16:38:00.819Z,75.33
2022-11-16T16:40:30.000Z,75.75
2022-11-16T16:42:57.906Z,75.54
2022-11-16T16:45:35.124Z,75.79
2022-11-16T16:48:02.855Z,75.70
2022-11-16T16:50:30.663Z,75.48
2022-11-16T16:52:58.471Z,75.63
2022-11-16T16:55:26.263Z,75.75
2022-11-16T16:57:57.614Z,76.07
2022-11-16T17:00:26.067Z,75.32
2022-11-16T17:02:53.732Z,75.74
2022-11-16T17:05:21.446Z,75.74
2022-11-16T17:07:49.184Z,75.77
2022-11-16T17:10:17.841Z,75.98
2022-11-16T17:12:45.530Z,75.88
2022-11-16T17:15:19.178Z,75.53
2022-11-16T17:17:47.236Z,75.75
2022-11-16T17:20:16.123Z,75.53
2022-11-16T17:22:43.857Z,75.57
2022-11-16T17:25:11.670Z,75.72
2022-11-16T17:27:39.422Z,75.39
2022-11-16T17:30:08.372Z,75.47
2022-11-16T17:32:37.512Z,75.22
2022-11-16T17:35:05.511Z,75.75
2022-11-16T17:37:33.172Z,75.89
2022-11-16T17:40:00.836Z,75.97
2022-11-16T17:42:28.582Z,76.23
2022-11-16T17:44:56.204Z,75.83
2022-11-16T17:47:23.891Z,75.61
2022-11-16T17:49:52.969Z,75.81
2022-11-16T17:52:20.660Z,75.84
2022-11-16T17:54:48.297Z,75.67
2022-11-16T17:57:16.149Z,75.80
2022-11-16T17:59:43.855Z,75.51
2022-11-16T18:02:12.111Z,75.71
2022-11-16T18:04:39.692Z,75.73
2022-11-16T18:07:09.247Z,75.65
2022-11-16T18:09:36.956Z,75.27
2022-11-16T18:12:04.850Z,75.30
2022-11-16T18:14:32.478Z,75.36
2022-11-16T18:17:00.111Z,75.39
2022-11-16T18:19:27.771Z,75.88
2022-11-16T18:21:55.524Z,75.76
2022-11-16T18:24:24.567Z,75.46
2022-11-16T18:26:52.272Z,75.35
2022-11-16T18:29:19.944Z,75.24
2022-11-16T18:31:47.605Z,75.43
2022-11-16T18:34:15.931Z,75.23
2022-11-16T18:36:43.685Z,75.31
2022-11-16T18:39:11.394Z,74.77
2022-11-16T18:41:48.584Z,75.20
2022-11-16T18:44:19.225Z,74.93
2022-11-16T18:46:46.864Z,74.66
2022-11-16T18:49:15.301Z,74.90
2022-11-16T18:51:42.945Z,75.13
2022-11-16T18:54:10.602Z,75.18
2022-11-16T18:56:38.325Z,75.35
2022-11-16T19:01:04.212Z,75.06
2022-11-16T19:03:32.645Z,74.96
2022-11-16T19:06:01.468Z,74.81
2022-11-16T19:08:29.355Z,75.00
2022-11-16T19:10:57.058Z,74.79
2022-11-16T19:13:24.750Z,75.08
2022-11-16T19:15:55.875Z,75.31
2022-11-16T19:18:24.910Z,74.59
2022-11-16T19:20:52.597Z,74.54
2022-11-16T19:23:20.305Z,74.75
2022-11-16T19:25:48.036Z,74.50
2022-11-16T19:28:15.702Z,74.35
2022-11-16T19:30:43.328Z,74.58
2022-11-16T19:33:11.007Z,74.41
2022-11-16T19:35:40.078Z,74.52
2022-11-16T19:38:07.717Z,74.58
2022-11-16T19:40:38.019Z,74.73
2022-11-16T19:43:05.655Z,74.84
2022-11-16T19:45:33.367Z,74.82
2022-11-16T19:48:01.044Z,74.57
2022-11-16T19:50:28.715Z,74.78
2022-11-16T19:52:57.741Z,74.76
2022-11-16T19:55:25.441Z,74.76
2022-11-16T19:57:53.184Z,74.95
2022-11-16T20:00:21.314Z,74.65
2022-11-16T20:02:49.064Z,75.56
2022-11-16T20:05:16.739Z,75.30
2022-11-16T20:07:44.733Z,75.38
2022-11-16T20:10:13.806Z,75.36
2022-11-16T20:12:41.498Z,75.41
2022-11-16T20:15:10.111Z,75.28
2022-11-16T20:17:37.805Z,75.31
2022-11-16T20:20:06.342Z,75.57
2022-11-16T20:22:34.186Z,75.43
2022-11-16T20:25:01.840Z,75.58
2022-11-16T20:27:30.934Z,75.21
2022-11-16T20:29:58.596Z,75.55
2022-11-16T20:32:26.236Z,75.47
2022-11-16T20:34:53.911Z,75.64
2022-11-16T20:37:21.612Z,75.55
2022-11-16T20:39:52.540Z,75.84
2022-11-16T20:42:20.243Z,75.61
2022-11-16T20:44:49.412Z,75.92
2022-11-16T20:47:17.161Z,75.65
2022-11-16T20:49:44.788Z,76.00
2022-11-16T20:52:12.473Z,76.10
2022-11-16T20:54:40.205Z,75.73
2022-11-16T20:57:07.994Z,75.58
2022-11-16T20:59:35.651Z,75.53
2022-11-16T21:02:04.789Z,75.82
2022-11-16T21:04:32.524Z,75.68
2022-11-16T21:07:00.303Z,75.75
2022-11-16T21:09:28.056Z,75.56
2022-11-16T21:12:13.460Z,76.00
2022-11-16T21:14:41.283Z,76.05
2022-11-16T21:17:10.491Z,76.19
2022-11-16T21:19:38.583Z,76.07
2022-11-16T21:22:06.356Z,76.50
2022-11-16T21:24:34.691Z,76.24
2022-11-16T21:27:02.372Z,76.27
2022-11-16T21:29:30.407Z,76.36
2022-11-16T21:31:58.081Z,76.53
2022-11-16T21:34:28.658Z,76.59
2022-11-16T21:36:56.404Z,76.89
2022-11-16T21:39:24.067Z,76.98
2022-11-16T21:41:51.733Z,77.04
2022-11-16T21:44:19.503Z,76.96
2022-11-16T21:46:47.199Z,76.95
2022-11-16T21:49:14.884Z,77.14
2022-11-16T21:51:43.938Z,76.87
2022-11-16T21:54:11.626Z,77.27
2022-11-16T21:56:39.327Z,77.39
2022-11-16T21:59:06.959Z,77.29
2022-11-16T22:01:54.726Z,77.95
2022-11-16T22:04:40.069Z,77.99
2022-11-16T22:07:32.083Z,77.68
2022-11-16T22:09:59.817Z,78.39
2022-11-16T22:12:27.487Z,78.04
2022-11-16T22:14:55.192Z,78.56
2022-11-16T22:17:23.400Z,78.44
2022-11-16T22:19:51.117Z,78.80
2022-11-16T22:22:20.337Z,78.63
2022-11-16T22:24:48.156Z,78.74
2022-11-16T22:27:15.906Z,78.79
2022-11-16T22:29:43.592Z,79.09
2022-11-16T22:32:11.356Z,78.93
2022-11-16T22:34:39.101Z,78.70
2022-11-16T22:37:06.832Z,79.32
2022-11-16T22:39:37.832Z,79.15
2022-11-16T22:42:05.931Z,79.08
2022-11-16T22:44:33.679Z,79.20
2022-11-16T22:47:01.277Z,79.14
2022-11-16T22:49:28.941Z,79.26
2022-11-16T22:51:56.653Z,79.53
2022-11-16T22:54:28.428Z,79.22
2022-11-16T22:56:58.046Z,79.33
2022-11-16T22:59:25.729Z,79.17
2022-11-16T23:01:53.330Z,79.50
2022-11-16T23:04:21.000Z,79.41
2022-11-16T23:06:49.360Z,79.27
2022-11-16T23:09:17.141Z,79.63
2022-11-16T23:12:02.295Z,79.55
2022-11-16T23:14:48.629Z,79.16
2022-11-16T23:17:16.283Z,79.44
2022-11-16T23:20:01.411Z,79.62
2022-11-16T23:22:46.914Z,79.70
2022-11-16T23:25:32.060Z,79.73
2022-11-16T23:28:01.696Z,79.84
2022-11-16T23:30:30.861Z,79.37
2022-11-16T23:32:58.569Z,79.97
2022-11-16T23:35:26.251Z,79.75
2022-11-16T23:37:54.917Z,80.10
2022-11-16T23:40:24.546Z,80.25
2022-11-16T23:43:10.288Z,80.21
2022-11-16T23:45:39.744Z,79.91
2022-11-16T23:48:07.917Z,80.05
2022-11-16T23:50:36.529Z,80.17
2022-11-16T23:53:05.020Z,80.11
2022-11-16T23:55:33.527Z,80.02
2022-11-16T23:58:01.422Z,80.05
